sensor_id;sensor_type;location;lat;lon;timestamp;P1;durP1;ratioP1;P2;durP2;ratioP2
28170;SDS011;15458;53.346;-1.688;2022-07-23T00:00:05;7.55;;;3.10;;
28170;SDS011;15458;53.346;-1.688;2022-07-23T00:02:32;4.38;;;2.45;;
28170;SDS011;15458;53.346;-1.688;2022-07-23T00:04:58;5.88;;;2.30;;
28170;SDS011;15458;53.346;-1.688;2022-07-23T00:07:24;5.90;;;2.30;;
28170;SDS011;15458;53.346;-1.688;2022-07-23T00:09:49;7.35;;;2.47;;
28170;SDS011;15458;53.346;-1.688;2022-07-23T00:12:15;7.80;;;2.63;;
28170;SDS011;15458;53.346;-1.688;2022-07-23T00:14:41;2.40;;;2.10;;
28170;SDS011;15458;53.346;-1.688;2022-07-23T00:17:07;6.85;;;2.42;;
28170;SDS011;15458;53.346;-1.688;2022-07-23T00:19:32;4.38;;;2.35;;
28170;SDS011;15458;53.346;-1.688;2022-07-23T00:21:58;5.43;;;2.25;;
28170;SDS011;15458;53.346;-1.688;2022-07-23T00:24:24;8.40;;;2.50;;
28170;SDS011;15458;53.346;-1.688;2022-07-23T00:26:52;4.97;;;2.63;;
28170;SDS011;15458;53.346;-1.688;2022-07-23T00:29:18;4.82;;;2.60;;
28170;SDS011;15458;53.346;-1.688;2022-07-23T00:31:44;5.18;;;2.75;;
28170;SDS011;15458;53.346;-1.688;2022-07-23T00:34:09;6.18;;;2.60;;
28170;SDS011;15458;53.346;-1.688;2022-07-23T00:36:35;5.68;;;2.40;;
28170;SDS011;15458;53.346;-1.688;2022-07-23T00:39:01;5.85;;;2.50;;
28170;SDS011;15458;53.346;-1.688;2022-07-23T00:41:27;6.63;;;2.50;;
28170;SDS011;15458;53.346;-1.688;2022-07-23T00:43:52;6.03;;;2.25;;
28170;SDS011;15458;53.346;-1.688;2022-07-23T00:46:22;7.03;;;2.30;;
28170;SDS011;15458;53.346;-1.688;2022-07-23T00:48:48;5.30;;;2.78;;
28170;SDS011;15458;53.346;-1.688;2022-07-23T00:51:17;7.82;;;3.20;;
28170;SDS011;15458;53.346;-1.688;2022-07-23T00:53:44;4.55;;;2.60;;
28170;SDS011;15458;53.346;-1.688;2022-07-23T00:56:10;7.43;;;2.90;;
28170;SDS011;15458;53.346;-1.688;2022-07-23T00:58:37;11.85;;;3.05;;
28170;SDS011;15458;53.346;-1.688;2022-07-23T01:01:06;4.95;;;2.95;;
28170;SDS011;15458;53.346;-1.688;2022-07-23T01:03:33;5.28;;;2.47;;
28170;SDS011;15458;53.346;-1.688;2022-07-23T01:05:58;8.65;;;2.60;;
28170;SDS011;15458;53.346;-1.688;2022-07-23T01:08:24;4.47;;;2.85;;
28170;SDS011;15458;53.346;-1.688;2022-07-23T01:10:50;5.28;;;2.72;;
28170;SDS011;15458;53.346;-1.688;2022-07-23T01:13:16;8.80;;;2.95;;
28170;SDS011;15458;53.346;-1.688;2022-07-23T01:15:42;8.45;;;3.20;;
28170;SDS011;15458;53.346;-1.688;2022-07-23T01:18:08;8.05;;;3.38;;
28170;SDS011;15458;53.346;-1.688;2022-07-23T01:20:34;4.85;;;2.90;;
28170;SDS011;15458;53.346;-1.688;2022-07-23T01:23:00;3.80;;;3.00;;
28170;SDS011;15458;53.346;-1.688;2022-07-23T01:25:26;7.05;;;2.90;;
28170;SDS011;15458;53.346;-1.688;2022-07-23T01:27:53;10.23;;;3.08;;
28170;SDS011;15458;53.346;-1.688;2022-07-23T01:30:19;10.35;;;3.40;;
28170;SDS011;15458;53.346;-1.688;2022-07-23T01:32:45;8.00;;;3.10;;
28170;SDS011;15458;53.346;-1.688;2022-07-23T01:35:13;8.68;;;2.53;;
28170;SDS011;15458;53.346;-1.688;2022-07-23T01:37:38;7.60;;;3.38;;
28170;SDS011;15458;53.346;-1.688;2022-07-23T01:40:06;7.28;;;3.25;;
28170;SDS011;15458;53.346;-1.688;2022-07-23T01:42:32;6.38;;;3.10;;
28170;SDS011;15458;53.346;-1.688;2022-07-23T01:44:58;8.98;;;3.90;;
28170;SDS011;15458;53.346;-1.688;2022-07-23T01:47:23;10.30;;;3.03;;
28170;SDS011;15458;53.346;-1.688;2022-07-23T01:49:50;5.93;;;3.53;;
28170;SDS011;15458;53.346;-1.688;2022-07-23T01:52:16;7.90;;;3.35;;
28170;SDS011;15458;53.346;-1.688;2022-07-23T01:54:42;5.97;;;3.05;;
28170;SDS011;15458;53.346;-1.688;2022-07-23T01:57:08;11.73;;;3.00;;
28170;SDS011;15458;53.346;-1.688;2022-07-23T01:59:34;7.28;;;3.33;;
28170;SDS011;15458;53.346;-1.688;2022-07-23T02:02:00;8.50;;;3.47;;
28170;SDS011;15458;53.346;-1.688;2022-07-23T02:04:25;5.88;;;2.85;;
28170;SDS011;15458;53.346;-1.688;2022-07-23T02:06:51;6.88;;;3.00;;
28170;SDS011;15458;53.346;-1.688;2022-07-23T02:09:18;5.68;;;2.92;;
28170;SDS011;15458;53.346;-1.688;2022-07-23T02:11:43;4.15;;;2.38;;
28170;SDS011;15458;53.346;-1.688;2022-07-23T02:14:09;5.63;;;3.22;;
28170;SDS011;15458;53.346;-1.688;2022-07-23T02:16:35;8.32;;;3.67;;
28170;SDS011;15458;53.346;-1.688;2022-07-23T02:19:00;5.35;;;3.33;;
28170;SDS011;15458;53.346;-1.688;2022-07-23T02:21:27;7.15;;;3.50;;
28170;SDS011;15458;53.346;-1.688;2022-07-23T02:23:52;7.28;;;3.20;;
28170;SDS011;15458;53.346;-1.688;2022-07-23T02:26:18;8.15;;;3.30;;
28170;SDS011;15458;53.346;-1.688;2022-07-23T02:28:44;9.35;;;3.13;;
28170;SDS011;15458;53.346;-1.688;2022-07-23T02:31:09;5.25;;;2.83;;
28170;SDS011;15458;53.346;-1.688;2022-07-23T02:33:35;6.72;;;3.20;;
28170;SDS011;15458;53.346;-1.688;2022-07-23T02:36:01;5.05;;;3.15;;
28170;SDS011;15458;53.346;-1.688;2022-07-23T02:38:26;4.63;;;2.78;;
28170;SDS011;15458;53.346;-1.688;2022-07-23T02:40:53;9.23;;;3.35;;
28170;SDS011;15458;53.346;-1.688;2022-07-23T02:43:18;4.15;;;2.92;;
28170;SDS011;15458;53.346;-1.688;2022-07-23T02:45:44;6.68;;;3.22;;
28170;SDS011;15458;53.346;-1.688;2022-07-23T02:48:10;6.70;;;3.30;;
28170;SDS011;15458;53.346;-1.688;2022-07-23T02:50:37;6.00;;;3.22;;
28170;SDS011;15458;53.346;-1.688;2022-07-23T02:53:03;8.05;;;3.45;;
28170;SDS011;15458;53.346;-1.688;2022-07-23T02:55:29;5.78;;;3.35;;
28170;SDS011;15458;53.346;-1.688;2022-07-23T02:57:56;6.53;;;3.65;;
28170;SDS011;15458;53.346;-1.688;2022-07-23T03:00:22;5.80;;;2.90;;
28170;SDS011;15458;53.346;-1.688;2022-07-23T03:02:48;7.60;;;3.58;;
28170;SDS011;15458;53.346;-1.688;2022-07-23T03:05:13;8.30;;;4.05;;
28170;SDS011;15458;53.346;-1.688;2022-07-23T03:07:39;4.85;;;3.85;;
28170;SDS011;15458;53.346;-1.688;2022-07-23T03:10:05;9.13;;;3.55;;
28170;SDS011;15458;53.346;-1.688;2022-07-23T03:12:31;11.73;;;3.70;;
28170;SDS011;15458;53.346;-1.688;2022-07-23T03:14:56;7.47;;;3.85;;
28170;SDS011;15458;53.346;-1.688;2022-07-23T03:17:22;7.28;;;4.03;;
28170;SDS011;15458;53.346;-1.688;2022-07-23T03:19:48;8.70;;;4.15;;
28170;SDS011;15458;53.346;-1.688;2022-07-23T03:22:14;6.90;;;3.60;;
28170;SDS011;15458;53.346;-1.688;2022-07-23T03:24:39;8.77;;;3.72;;
28170;SDS011;15458;53.346;-1.688;2022-07-23T03:27:23;8.73;;;3.63;;
28170;SDS011;15458;53.346;-1.688;2022-07-23T03:29:51;7.97;;;4.35;;
28170;SDS011;15458;53.346;-1.688;2022-07-23T03:32:18;7.20;;;4.20;;
28170;SDS011;15458;53.346;-1.688;2022-07-23T03:34:44;6.25;;;4.00;;
28170;SDS011;15458;53.346;-1.688;2022-07-23T03:37:10;9.48;;;4.60;;
28170;SDS011;15458;53.346;-1.688;2022-07-23T03:39:36;6.10;;;3.35;;
28170;SDS011;15458;53.346;-1.688;2022-07-23T03:42:02;10.80;;;4.05;;
28170;SDS011;15458;53.346;-1.688;2022-07-23T03:44:28;9.25;;;4.22;;
28170;SDS011;15458;53.346;-1.688;2022-07-23T03:46:53;9.07;;;3.83;;
28170;SDS011;15458;53.346;-1.688;2022-07-23T03:49:19;6.57;;;3.85;;
28170;SDS011;15458;53.346;-1.688;2022-07-23T03:51:45;8.57;;;5.10;;
28170;SDS011;15458;53.346;-1.688;2022-07-23T03:54:10;14.50;;;4.32;;
28170;SDS011;15458;53.346;-1.688;2022-07-23T03:56:36;6.78;;;4.22;;
28170;SDS011;15458;53.346;-1.688;2022-07-23T03:59:02;6.60;;;4.30;;
28170;SDS011;15458;53.346;-1.688;2022-07-23T04:01:28;8.35;;;4.20;;
28170;SDS011;15458;53.346;-1.688;2022-07-23T04:03:53;7.28;;;4.00;;
28170;SDS011;15458;53.346;-1.688;2022-07-23T04:06:19;9.38;;;4.15;;
28170;SDS011;15458;53.346;-1.688;2022-07-23T04:08:45;8.63;;;4.35;;
28170;SDS011;15458;53.346;-1.688;2022-07-23T04:11:11;13.40;;;4.22;;
28170;SDS011;15458;53.346;-1.688;2022-07-23T04:13:37;9.88;;;4.43;;
28170;SDS011;15458;53.346;-1.688;2022-07-23T04:16:02;5.47;;;4.10;;
28170;SDS011;15458;53.346;-1.688;2022-07-23T04:18:29;9.60;;;4.88;;
28170;SDS011;15458;53.346;-1.688;2022-07-23T04:20:55;13.88;;;5.55;;
28170;SDS011;15458;53.346;-1.688;2022-07-23T04:23:20;9.18;;;4.70;;
28170;SDS011;15458;53.346;-1.688;2022-07-23T04:25:46;7.03;;;4.70;;
28170;SDS011;15458;53.346;-1.688;2022-07-23T04:28:12;9.57;;;4.57;;
28170;SDS011;15458;53.346;-1.688;2022-07-23T04:30:38;9.52;;;5.53;;
28170;SDS011;15458;53.346;-1.688;2022-07-23T04:33:03;8.88;;;4.57;;
28170;SDS011;15458;53.346;-1.688;2022-07-23T04:35:32;11.20;;;5.88;;
28170;SDS011;15458;53.346;-1.688;2022-07-23T04:37:59;9.80;;;5.70;;
28170;SDS011;15458;53.346;-1.688;2022-07-23T04:40:25;13.88;;;5.90;;
28170;SDS011;15458;53.346;-1.688;2022-07-23T04:42:51;8.88;;;5.15;;
28170;SDS011;15458;53.346;-1.688;2022-07-23T04:45:17;8.93;;;4.97;;
28170;SDS011;15458;53.346;-1.688;2022-07-23T04:47:42;9.43;;;4.47;;
28170;SDS011;15458;53.346;-1.688;2022-07-23T04:50:08;12.35;;;5.72;;
28170;SDS011;15458;53.346;-1.688;2022-07-23T04:52:34;7.00;;;4.57;;
28170;SDS011;15458;53.346;-1.688;2022-07-23T04:55:00;11.30;;;5.00;;
28170;SDS011;15458;53.346;-1.688;2022-07-23T04:57:26;8.07;;;4.78;;
28170;SDS011;15458;53.346;-1.688;2022-07-23T04:59:51;7.30;;;4.57;;
28170;SDS011;15458;53.346;-1.688;2022-07-23T05:02:17;10.27;;;5.30;;
28170;SDS011;15458;53.346;-1.688;2022-07-23T05:04:43;7.78;;;5.53;;
28170;SDS011;15458;53.346;-1.688;2022-07-23T05:07:09;10.18;;;4.90;;
28170;SDS011;15458;53.346;-1.688;2022-07-23T05:09:34;7.50;;;5.13;;
28170;SDS011;15458;53.346;-1.688;2022-07-23T05:12:00;8.07;;;5.18;;
28170;SDS011;15458;53.346;-1.688;2022-07-23T05:14:26;13.07;;;7.07;;
28170;SDS011;15458;53.346;-1.688;2022-07-23T05:16:52;12.25;;;6.93;;
28170;SDS011;15458;53.346;-1.688;2022-07-23T05:19:18;22.55;;;9.60;;
28170;SDS011;15458;53.346;-1.688;2022-07-23T05:21:44;20.75;;;9.63;;
28170;SDS011;15458;53.346;-1.688;2022-07-23T05:24:10;15.40;;;9.95;;
28170;SDS011;15458;53.346;-1.688;2022-07-23T05:26:36;20.38;;;9.88;;
28170;SDS011;15458;53.346;-1.688;2022-07-23T05:29:01;15.60;;;9.30;;
28170;SDS011;15458;53.346;-1.688;2022-07-23T05:31:27;17.25;;;9.10;;
28170;SDS011;15458;53.346;-1.688;2022-07-23T05:33:53;14.55;;;8.63;;
28170;SDS011;15458;53.346;-1.688;2022-07-23T05:36:19;14.63;;;8.43;;
28170;SDS011;15458;53.346;-1.688;2022-07-23T05:38:44;15.38;;;7.07;;
28170;SDS011;15458;53.346;-1.688;2022-07-23T05:41:10;19.23;;;9.13;;
28170;SDS011;15458;53.346;-1.688;2022-07-23T05:43:36;16.98;;;9.30;;
28170;SDS011;15458;53.346;-1.688;2022-07-23T05:46:02;25.40;;;9.90;;
28170;SDS011;15458;53.346;-1.688;2022-07-23T05:48:27;20.92;;;10.48;;
28170;SDS011;15458;53.346;-1.688;2022-07-23T05:50:53;22.35;;;11.60;;
28170;SDS011;15458;53.346;-1.688;2022-07-23T05:53:19;31.38;;;12.15;;
28170;SDS011;15458;53.346;-1.688;2022-07-23T05:55:44;25.52;;;12.32;;
28170;SDS011;15458;53.346;-1.688;2022-07-23T05:58:10;23.20;;;12.90;;
28170;SDS011;15458;53.346;-1.688;2022-07-23T06:00:36;25.20;;;13.13;;
28170;SDS011;15458;53.346;-1.688;2022-07-23T06:03:02;23.40;;;12.90;;
28170;SDS011;15458;53.346;-1.688;2022-07-23T06:05:27;32.95;;;14.68;;
28170;SDS011;15458;53.346;-1.688;2022-07-23T06:07:53;24.95;;;14.40;;
28170;SDS011;15458;53.346;-1.688;2022-07-23T06:10:19;24.83;;;13.93;;
28170;SDS011;15458;53.346;-1.688;2022-07-23T06:12:45;27.77;;;13.00;;
28170;SDS011;15458;53.346;-1.688;2022-07-23T06:15:11;27.33;;;14.05;;
28170;SDS011;15458;53.346;-1.688;2022-07-23T06:17:38;26.98;;;14.25;;
28170;SDS011;15458;53.346;-1.688;2022-07-23T06:20:05;30.00;;;14.90;;
28170;SDS011;15458;53.346;-1.688;2022-07-23T06:22:33;32.95;;;14.93;;
28170;SDS011;15458;53.346;-1.688;2022-07-23T06:25:00;31.38;;;15.32;;
28170;SDS011;15458;53.346;-1.688;2022-07-23T06:27:26;24.98;;;14.98;;
28170;SDS011;15458;53.346;-1.688;2022-07-23T06:29:51;28.88;;;15.77;;
28170;SDS011;15458;53.346;-1.688;2022-07-23T06:32:17;31.13;;;14.98;;
28170;SDS011;15458;53.346;-1.688;2022-07-23T06:34:43;28.75;;;16.13;;
28170;SDS011;15458;53.346;-1.688;2022-07-23T06:37:09;31.10;;;15.20;;
28170;SDS011;15458;53.346;-1.688;2022-07-23T06:39:35;28.10;;;15.32;;
28170;SDS011;15458;53.346;-1.688;2022-07-23T06:42:01;24.90;;;14.02;;
28170;SDS011;15458;53.346;-1.688;2022-07-23T06:44:27;27.83;;;15.50;;
28170;SDS011;15458;53.346;-1.688;2022-07-23T06:46:53;31.45;;;15.20;;
28170;SDS011;15458;53.346;-1.688;2022-07-23T06:49:18;23.58;;;14.10;;
28170;SDS011;15458;53.346;-1.688;2022-07-23T06:51:44;31.02;;;16.63;;
28170;SDS011;15458;53.346;-1.688;2022-07-23T06:54:10;23.13;;;12.43;;
28170;SDS011;15458;53.346;-1.688;2022-07-23T06:56:36;27.23;;;14.98;;
28170;SDS011;15458;53.346;-1.688;2022-07-23T06:59:02;24.85;;;14.35;;
28170;SDS011;15458;53.346;-1.688;2022-07-23T07:01:29;24.95;;;13.30;;
28170;SDS011;15458;53.346;-1.688;2022-07-23T07:03:55;21.65;;;13.57;;
28170;SDS011;15458;53.346;-1.688;2022-07-23T07:06:21;26.25;;;14.15;;
28170;SDS011;15458;53.346;-1.688;2022-07-23T07:08:47;26.83;;;13.38;;
28170;SDS011;15458;53.346;-1.688;2022-07-23T07:11:13;20.92;;;12.80;;
28170;SDS011;15458;53.346;-1.688;2022-07-23T07:13:38;23.75;;;12.77;;
28170;SDS011;15458;53.346;-1.688;2022-07-23T07:16:04;22.63;;;12.77;;
28170;SDS011;15458;53.346;-1.688;2022-07-23T07:18:31;21.60;;;12.38;;
28170;SDS011;15458;53.346;-1.688;2022-07-23T07:20:57;22.73;;;12.77;;
28170;SDS011;15458;53.346;-1.688;2022-07-23T07:23:23;25.00;;;13.65;;
28170;SDS011;15458;53.346;-1.688;2022-07-23T07:25:49;26.25;;;13.35;;
28170;SDS011;15458;53.346;-1.688;2022-07-23T07:28:15;30.00;;;14.00;;
28170;SDS011;15458;53.346;-1.688;2022-07-23T07:30:41;22.15;;;12.57;;
28170;SDS011;15458;53.346;-1.688;2022-07-23T07:33:06;26.55;;;13.18;;
28170;SDS011;15458;53.346;-1.688;2022-07-23T07:35:32;27.67;;;14.30;;
28170;SDS011;15458;53.346;-1.688;2022-07-23T07:37:59;25.05;;;13.38;;
28170;SDS011;15458;53.346;-1.688;2022-07-23T07:40:25;25.67;;;14.27;;
28170;SDS011;15458;53.346;-1.688;2022-07-23T07:42:52;24.13;;;12.30;;
28170;SDS011;15458;53.346;-1.688;2022-07-23T07:45:22;24.65;;;12.93;;
28170;SDS011;15458;53.346;-1.688;2022-07-23T07:47:49;23.60;;;13.25;;
28170;SDS011;15458;53.346;-1.688;2022-07-23T07:50:16;25.25;;;13.85;;
28170;SDS011;15458;53.346;-1.688;2022-07-23T07:52:42;27.23;;;13.52;;
28170;SDS011;15458;53.346;-1.688;2022-07-23T07:55:08;24.63;;;14.20;;
28170;SDS011;15458;53.346;-1.688;2022-07-23T07:57:35;22.50;;;11.98;;
28170;SDS011;15458;53.346;-1.688;2022-07-23T08:00:01;36.65;;;9.60;;
28170;SDS011;15458;53.346;-1.688;2022-07-23T08:02:28;27.92;;;13.38;;
28170;SDS011;15458;53.346;-1.688;2022-07-23T08:05:04;26.08;;;11.93;;
28170;SDS011;15458;53.346;-1.688;2022-07-23T08:07:29;25.23;;;10.57;;
28170;SDS011;15458;53.346;-1.688;2022-07-23T08:09:55;25.25;;;11.13;;
28170;SDS011;15458;53.346;-1.688;2022-07-23T08:12:21;23.13;;;11.57;;
28170;SDS011;15458;53.346;-1.688;2022-07-23T08:14:47;19.23;;;11.77;;
28170;SDS011;15458;53.346;-1.688;2022-07-23T08:17:12;24.90;;;11.13;;
28170;SDS011;15458;53.346;-1.688;2022-07-23T08:19:38;28.63;;;11.57;;
28170;SDS011;15458;53.346;-1.688;2022-07-23T08:22:04;19.70;;;10.05;;
28170;SDS011;15458;53.346;-1.688;2022-07-23T08:24:31;15.88;;;9.40;;
28170;SDS011;15458;53.346;-1.688;2022-07-23T08:26:56;22.65;;;9.88;;
28170;SDS011;15458;53.346;-1.688;2022-07-23T08:29:22;16.15;;;10.15;;
28170;SDS011;15458;53.346;-1.688;2022-07-23T08:31:48;17.55;;;10.00;;
28170;SDS011;15458;53.346;-1.688;2022-07-23T08:34:14;18.38;;;10.60;;
28170;SDS011;15458;53.346;-1.688;2022-07-23T08:36:40;23.48;;;12.15;;
28170;SDS011;15458;53.346;-1.688;2022-07-23T08:39:05;22.70;;;10.95;;
28170;SDS011;15458;53.346;-1.688;2022-07-23T08:41:32;15.70;;;9.13;;
28170;SDS011;15458;53.346;-1.688;2022-07-23T08:43:59;19.27;;;9.77;;
28170;SDS011;15458;53.346;-1.688;2022-07-23T08:46:26;22.58;;;10.93;;
28170;SDS011;15458;53.346;-1.688;2022-07-23T08:48:52;23.15;;;11.73;;
28170;SDS011;15458;53.346;-1.688;2022-07-23T08:51:20;19.45;;;11.45;;
28170;SDS011;15458;53.346;-1.688;2022-07-23T08:53:50;19.52;;;11.13;;
28170;SDS011;15458;53.346;-1.688;2022-07-23T08:56:17;19.80;;;10.80;;
28170;SDS011;15458;53.346;-1.688;2022-07-23T08:58:43;20.60;;;10.32;;
28170;SDS011;15458;53.346;-1.688;2022-07-23T09:01:08;20.77;;;11.43;;
28170;SDS011;15458;53.346;-1.688;2022-07-23T09:03:36;18.17;;;10.82;;
28170;SDS011;15458;53.346;-1.688;2022-07-23T09:06:04;25.70;;;10.55;;
28170;SDS011;15458;53.346;-1.688;2022-07-23T09:11:00;17.67;;;10.52;;
28170;SDS011;15458;53.346;-1.688;2022-07-23T09:15:55;20.80;;;11.07;;
28170;SDS011;15458;53.346;-1.688;2022-07-23T09:18:41;21.88;;;11.32;;
28170;SDS011;15458;53.346;-1.688;2022-07-23T09:21:31;17.60;;;11.02;;
28170;SDS011;15458;53.346;-1.688;2022-07-23T09:26:35;19.88;;;10.23;;
28170;SDS011;15458;53.346;-1.688;2022-07-23T09:29:05;16.38;;;9.38;;
28170;SDS011;15458;53.346;-1.688;2022-07-23T09:31:41;15.40;;;9.13;;
28170;SDS011;15458;53.346;-1.688;2022-07-23T09:34:12;15.57;;;7.78;;
28170;SDS011;15458;53.346;-1.688;2022-07-23T09:36:39;16.95;;;8.32;;
28170;SDS011;15458;53.346;-1.688;2022-07-23T09:39:06;14.32;;;8.52;;
28170;SDS011;15458;53.346;-1.688;2022-07-23T09:41:39;15.85;;;9.20;;
28170;SDS011;15458;53.346;-1.688;2022-07-23T09:44:08;18.33;;;9.02;;
28170;SDS011;15458;53.346;-1.688;2022-07-23T09:46:36;13.80;;;8.48;;
28170;SDS011;15458;53.346;-1.688;2022-07-23T09:49:15;11.48;;;7.75;;
28170;SDS011;15458;53.346;-1.688;2022-07-23T09:51:50;17.85;;;8.80;;
28170;SDS011;15458;53.346;-1.688;2022-07-23T09:56:47;17.60;;;7.88;;
28170;SDS011;15458;53.346;-1.688;2022-07-23T09:59:14;15.55;;;9.60;;
28170;SDS011;15458;53.346;-1.688;2022-07-23T10:01:43;16.65;;;10.02;;
28170;SDS011;15458;53.346;-1.688;2022-07-23T10:04:13;16.30;;;9.15;;
28170;SDS011;15458;53.346;-1.688;2022-07-23T10:06:42;16.42;;;7.68;;
28170;SDS011;15458;53.346;-1.688;2022-07-23T10:09:10;13.45;;;7.93;;
28170;SDS011;15458;53.346;-1.688;2022-07-23T10:11:38;9.25;;;5.15;;
28170;SDS011;15458;53.346;-1.688;2022-07-23T10:14:04;8.77;;;5.55;;
28170;SDS011;15458;53.346;-1.688;2022-07-23T10:16:31;9.18;;;6.10;;
28170;SDS011;15458;53.346;-1.688;2022-07-23T10:18:58;9.10;;;5.60;;
28170;SDS011;15458;53.346;-1.688;2022-07-23T10:21:25;7.63;;;5.03;;
28170;SDS011;15458;53.346;-1.688;2022-07-23T10:24:11;12.35;;;5.25;;
28170;SDS011;15458;53.346;-1.688;2022-07-23T10:36:01;10.68;;;5.30;;
28170;SDS011;15458;53.346;-1.688;2022-07-23T10:38:42;7.03;;;4.35;;
28170;SDS011;15458;53.346;-1.688;2022-07-23T10:41:31;6.72;;;4.25;;
28170;SDS011;15458;53.346;-1.688;2022-07-23T10:44:08;7.80;;;4.32;;
28170;SDS011;15458;53.346;-1.688;2022-07-23T10:46:35;9.35;;;3.53;;
28170;SDS011;15458;53.346;-1.688;2022-07-23T10:49:31;7.30;;;3.20;;
28170;SDS011;15458;53.346;-1.688;2022-07-23T10:54:42;8.43;;;3.88;;
28170;SDS011;15458;53.346;-1.688;2022-07-23T10:57:11;8.18;;;3.67;;
28170;SDS011;15458;53.346;-1.688;2022-07-23T11:02:26;10.02;;;3.80;;
28170;SDS011;15458;53.346;-1.688;2022-07-23T11:04:58;6.38;;;3.40;;
28170;SDS011;15458;53.346;-1.688;2022-07-23T11:07:32;7.75;;;3.78;;
28170;SDS011;15458;53.346;-1.688;2022-07-23T11:09:58;8.05;;;3.13;;
28170;SDS011;15458;53.346;-1.688;2022-07-23T11:17:25;8.05;;;3.72;;
28170;SDS011;15458;53.346;-1.688;2022-07-23T11:25:12;5.70;;;3.10;;
28170;SDS011;15458;53.346;-1.688;2022-07-23T11:27:53;5.05;;;3.17;;
28170;SDS011;15458;53.346;-1.688;2022-07-23T11:32:51;7.40;;;2.50;;
28170;SDS011;15458;53.346;-1.688;2022-07-23T11:35:28;7.60;;;2.22;;
28170;SDS011;15458;53.346;-1.688;2022-07-23T11:38:06;10.73;;;2.67;;
28170;SDS011;15458;53.346;-1.688;2022-07-23T11:40:37;4.43;;;2.63;;
28170;SDS011;15458;53.346;-1.688;2022-07-23T11:43:03;3.67;;;2.75;;
28170;SDS011;15458;53.346;-1.688;2022-07-23T11:45:33;6.53;;;2.80;;
28170;SDS011;15458;53.346;-1.688;2022-07-23T11:48:00;7.03;;;3.20;;
28170;SDS011;15458;53.346;-1.688;2022-07-23T11:50:27;5.88;;;2.50;;
28170;SDS011;15458;53.346;-1.688;2022-07-23T11:52:53;5.57;;;2.78;;
28170;SDS011;15458;53.346;-1.688;2022-07-23T11:55:19;7.55;;;2.63;;
28170;SDS011;15458;53.346;-1.688;2022-07-23T11:57:46;4.63;;;1.70;;
28170;SDS011;15458;53.346;-1.688;2022-07-23T12:00:13;4.47;;;2.25;;
28170;SDS011;15458;53.346;-1.688;2022-07-23T12:02:43;3.42;;;1.95;;
28170;SDS011;15458;53.346;-1.688;2022-07-23T12:05:14;3.25;;;1.90;;
28170;SDS011;15458;53.346;-1.688;2022-07-23T12:07:42;4.47;;;1.50;;
28170;SDS011;15458;53.346;-1.688;2022-07-23T12:13:03;4.28;;;1.70;;
28170;SDS011;15458;53.346;-1.688;2022-07-23T12:18:30;4.30;;;2.25;;
28170;SDS011;15458;53.346;-1.688;2022-07-23T12:20:56;6.10;;;2.20;;
28170;SDS011;15458;53.346;-1.688;2022-07-23T12:23:28;2.50;;;2.00;;
28170;SDS011;15458;53.346;-1.688;2022-07-23T12:25:53;5.07;;;1.98;;
28170;SDS011;15458;53.346;-1.688;2022-07-23T12:28:20;4.90;;;2.05;;
28170;SDS011;15458;53.346;-1.688;2022-07-23T12:30:52;2.17;;;1.98;;
28170;SDS011;15458;53.346;-1.688;2022-07-23T12:33:24;3.38;;;1.85;;
28170;SDS011;15458;53.346;-1.688;2022-07-23T12:35:52;5.28;;;1.77;;
28170;SDS011;15458;53.346;-1.688;2022-07-23T12:38:20;3.45;;;1.88;;
28170;SDS011;15458;53.346;-1.688;2022-07-23T12:40:51;3.92;;;1.85;;
28170;SDS011;15458;53.346;-1.688;2022-07-23T12:48:17;3.88;;;2.10;;
28170;SDS011;15458;53.346;-1.688;2022-07-23T12:50:50;4.43;;;1.80;;
28170;SDS011;15458;53.346;-1.688;2022-07-23T12:53:27;6.13;;;2.10;;
28170;SDS011;15458;53.346;-1.688;2022-07-23T12:56:04;4.05;;;2.55;;
28170;SDS011;15458;53.346;-1.688;2022-07-23T12:58:51;2.95;;;1.80;;
28170;SDS011;15458;53.346;-1.688;2022-07-23T13:03:57;6.60;;;1.77;;
28170;SDS011;15458;53.346;-1.688;2022-07-23T13:06:25;2.75;;;1.70;;
28170;SDS011;15458;53.346;-1.688;2022-07-23T13:08:54;2.67;;;1.73;;
28170;SDS011;15458;53.346;-1.688;2022-07-23T13:11:21;1.80;;;1.48;;
28170;SDS011;15458;53.346;-1.688;2022-07-23T13:13:47;2.40;;;1.80;;
28170;SDS011;15458;53.346;-1.688;2022-07-23T13:16:12;4.50;;;1.90;;
28170;SDS011;15458;53.346;-1.688;2022-07-23T13:18:38;3.80;;;1.83;;
28170;SDS011;15458;53.346;-1.688;2022-07-23T13:21:04;3.15;;;1.75;;
28170;SDS011;15458;53.346;-1.688;2022-07-23T13:23:30;4.15;;;2.20;;
28170;SDS011;15458;53.346;-1.688;2022-07-23T13:25:55;2.40;;;1.90;;
28170;SDS011;15458;53.346;-1.688;2022-07-23T13:28:21;2.25;;;1.90;;
28170;SDS011;15458;53.346;-1.688;2022-07-23T13:30:48;6.22;;;2.70;;
28170;SDS011;15458;53.346;-1.688;2022-07-23T13:33:18;3.97;;;2.15;;
28170;SDS011;15458;53.346;-1.688;2022-07-23T13:35:45;3.60;;;2.05;;
28170;SDS011;15458;53.346;-1.688;2022-07-23T13:38:11;4.20;;;2.28;;
28170;SDS011;15458;53.346;-1.688;2022-07-23T13:40:39;5.25;;;2.33;;
28170;SDS011;15458;53.346;-1.688;2022-07-23T13:43:07;4.55;;;2.25;;
28170;SDS011;15458;53.346;-1.688;2022-07-23T13:45:34;4.00;;;2.67;;
28170;SDS011;15458;53.346;-1.688;2022-07-23T13:48:00;5.22;;;3.00;;
28170;SDS011;15458;53.346;-1.688;2022-07-23T13:50:27;6.32;;;3.58;;
28170;SDS011;15458;53.346;-1.688;2022-07-23T13:52:53;4.13;;;3.00;;
28170;SDS011;15458;53.346;-1.688;2022-07-23T13:55:19;8.85;;;3.20;;
28170;SDS011;15458;53.346;-1.688;2022-07-23T13:57:44;7.45;;;3.17;;
28170;SDS011;15458;53.346;-1.688;2022-07-23T14:00:10;6.25;;;2.90;;
28170;SDS011;15458;53.346;-1.688;2022-07-23T14:02:37;5.82;;;3.08;;
28170;SDS011;15458;53.346;-1.688;2022-07-23T14:05:05;7.88;;;3.30;;
28170;SDS011;15458;53.346;-1.688;2022-07-23T14:07:32;6.18;;;3.40;;
28170;SDS011;15458;53.346;-1.688;2022-07-23T14:09:58;6.80;;;3.17;;
28170;SDS011;15458;53.346;-1.688;2022-07-23T14:12:25;5.30;;;3.40;;
28170;SDS011;15458;53.346;-1.688;2022-07-23T14:14:51;7.38;;;3.80;;
28170;SDS011;15458;53.346;-1.688;2022-07-23T14:17:17;5.78;;;3.58;;
28170;SDS011;15458;53.346;-1.688;2022-07-23T14:19:43;6.07;;;4.00;;
28170;SDS011;15458;53.346;-1.688;2022-07-23T14:22:09;4.03;;;3.17;;
28170;SDS011;15458;53.346;-1.688;2022-07-23T14:24:35;9.25;;;4.05;;
28170;SDS011;15458;53.346;-1.688;2022-07-23T14:27:01;5.07;;;3.20;;
28170;SDS011;15458;53.346;-1.688;2022-07-23T14:29:29;6.28;;;3.35;;
28170;SDS011;15458;53.346;-1.688;2022-07-23T14:31:55;8.13;;;3.63;;
28170;SDS011;15458;53.346;-1.688;2022-07-23T14:34:21;6.13;;;3.63;;
28170;SDS011;15458;53.346;-1.688;2022-07-23T14:36:47;5.70;;;3.55;;
28170;SDS011;15458;53.346;-1.688;2022-07-23T14:39:13;4.75;;;3.88;;
28170;SDS011;15458;53.346;-1.688;2022-07-23T14:41:39;5.68;;;3.55;;
28170;SDS011;15458;53.346;-1.688;2022-07-23T14:44:05;6.07;;;3.38;;
28170;SDS011;15458;53.346;-1.688;2022-07-23T14:46:31;6.85;;;3.55;;
28170;SDS011;15458;53.346;-1.688;2022-07-23T14:48:57;5.40;;;3.80;;
28170;SDS011;15458;53.346;-1.688;2022-07-23T14:51:22;6.38;;;3.97;;
28170;SDS011;15458;53.346;-1.688;2022-07-23T14:53:48;5.57;;;3.42;;
28170;SDS011;15458;53.346;-1.688;2022-07-23T14:56:14;9.07;;;3.50;;
28170;SDS011;15458;53.346;-1.688;2022-07-23T14:58:40;28.15;;;5.25;;
28170;SDS011;15458;53.346;-1.688;2022-07-23T15:01:06;5.68;;;3.75;;
28170;SDS011;15458;53.346;-1.688;2022-07-23T15:03:32;7.80;;;3.88;;
28170;SDS011;15458;53.346;-1.688;2022-07-23T15:05:58;11.10;;;3.88;;
28170;SDS011;15458;53.346;-1.688;2022-07-23T15:08:24;5.70;;;3.38;;
28170;SDS011;15458;53.346;-1.688;2022-07-23T15:10:50;9.00;;;3.75;;
28170;SDS011;15458;53.346;-1.688;2022-07-23T15:13:16;7.38;;;3.38;;
28170;SDS011;15458;53.346;-1.688;2022-07-23T15:15:42;5.80;;;3.55;;